createdAt,value
2018-12-06T00:00:14.302Z,25.77
2018-12-06T00:02:41.754Z,24.30
2018-12-06T00:05:09.272Z,27.45
2018-12-06T00:07:36.792Z,30.12
2018-12-06T00:10:04.792Z,27.17
2018-12-06T00:12:32.236Z,26.85
2018-12-06T00:15:11.407Z,25.10
2018-12-06T00:17:39.662Z,28.77
2018-12-06T00:20:07.095Z,29.90
2018-12-06T00:22:34.543Z,30.15
2018-12-06T00:25:01.995Z,24.75
2018-12-06T00:27:29.448Z,27.10
2018-12-06T00:33:24.627Z,23.65
2018-12-06T00:35:52.066Z,24.20
2018-12-06T00:38:19.518Z,28.42
2018-12-06T00:40:46.962Z,25.17
2018-12-06T00:43:14.416Z,21.95
2018-12-06T00:45:41.872Z,34.15
2018-12-06T00:48:09.314Z,31.02
2018-12-06T00:50:36.751Z,28.75
2018-12-06T00:53:04.202Z,26.48
2018-12-06T00:55:31.653Z,25.35
2018-12-06T00:57:59.099Z,26.15
2018-12-06T01:00:26.759Z,30.02
2018-12-06T01:02:54.212Z,25.65
2018-12-06T01:05:21.723Z,26.35
2018-12-06T01:07:49.537Z,22.45
2018-12-06T01:10:16.971Z,26.60
2018-12-06T01:12:44.456Z,26.27
2018-12-06T01:15:11.906Z,29.23
2018-12-06T01:17:39.355Z,28.27
2018-12-06T01:20:07.031Z,30.45
2018-12-06T01:22:34.504Z,26.48
2018-12-06T01:25:02.023Z,28.00
2018-12-06T01:27:29.458Z,24.10
2018-12-06T01:29:56.921Z,25.80
2018-12-06T01:32:25.051Z,31.00
2018-12-06T01:34:52.490Z,22.30
2018-12-06T01:37:20.083Z,37.35
2018-12-06T01:39:47.519Z,26.73
2018-12-06T01:42:14.971Z,29.65
2018-12-06T01:44:42.414Z,28.32
2018-12-06T01:47:09.938Z,29.98
2018-12-06T01:49:37.379Z,24.35
2018-12-06T01:52:04.925Z,25.52
2018-12-06T01:54:32.458Z,30.35
2018-12-06T01:56:59.921Z,25.55
2018-12-06T01:59:27.571Z,22.30
2018-12-06T02:01:55.149Z,29.92
2018-12-06T02:04:22.596Z,23.95
2018-12-06T02:06:50.055Z,30.08
2018-12-06T02:09:17.486Z,29.60
2018-12-06T02:11:45.070Z,26.35
2018-12-06T02:14:12.568Z,27.55
2018-12-06T02:16:40.104Z,27.02
2018-12-06T02:19:07.556Z,27.90
2018-12-06T02:21:35.779Z,25.40
2018-12-06T02:24:03.255Z,28.30
2018-12-06T02:26:30.714Z,29.87
2018-12-06T02:28:58.191Z,27.37
2018-12-06T02:31:25.692Z,26.30
2018-12-06T02:33:53.143Z,26.15
2018-12-06T02:36:21.466Z,25.72
2018-12-06T02:38:48.933Z,25.50
2018-12-06T02:41:16.383Z,22.50
2018-12-06T02:43:43.890Z,24.92
2018-12-06T02:46:11.322Z,22.02
2018-12-06T02:48:38.779Z,26.15
2018-12-06T02:51:06.945Z,25.15
2018-12-06T02:53:34.387Z,23.52
2018-12-06T02:56:01.876Z,30.40
2018-12-06T02:58:29.395Z,26.25
2018-12-06T03:00:56.872Z,28.60
2018-12-06T03:03:24.319Z,29.02
2018-12-06T03:05:51.779Z,25.08
2018-12-06T03:08:19.247Z,24.50
2018-12-06T03:10:46.715Z,25.27
2018-12-06T03:13:14.151Z,24.20
2018-12-06T03:15:41.611Z,24.60
2018-12-06T03:18:09.046Z,27.52
2018-12-06T03:20:36.599Z,25.48
2018-12-06T03:23:04.472Z,24.80
2018-12-06T03:25:31.970Z,24.57
2018-12-06T03:27:59.424Z,25.27
2018-12-06T03:30:26.890Z,22.45
2018-12-06T03:32:54.426Z,23.27
2018-12-06T03:35:21.871Z,26.62
2018-12-06T03:37:49.336Z,25.70
2018-12-06T03:40:16.807Z,27.65
2018-12-06T03:42:44.355Z,21.50
2018-12-06T03:45:11.800Z,24.00
2018-12-06T03:47:39.267Z,25.52
2018-12-06T03:50:06.730Z,20.90
2018-12-06T03:52:34.206Z,20.70
2018-12-06T03:55:01.664Z,22.00
2018-12-06T03:57:29.125Z,24.07
2018-12-06T03:59:56.571Z,34.43
2018-12-06T04:02:24.975Z,23.70
2018-12-06T04:04:52.420Z,21.50
2018-12-06T04:07:19.875Z,24.30
2018-12-06T04:09:47.424Z,21.05
2018-12-06T04:12:15.431Z,22.65
2018-12-06T04:14:42.995Z,26.00
2018-12-06T04:17:10.467Z,22.55
2018-12-06T04:19:37.926Z,26.35
2018-12-06T04:22:05.386Z,24.18
2018-12-06T04:24:32.851Z,24.00
2018-12-06T04:27:00.312Z,23.50
2018-12-06T04:29:27.821Z,23.07
2018-12-06T04:31:55.290Z,23.25
2018-12-06T04:34:22.734Z,23.15
2018-12-06T04:36:50.208Z,22.02
2018-12-06T04:39:17.766Z,28.07
2018-12-06T04:41:45.306Z,24.65
2018-12-06T04:44:12.823Z,23.65
2018-12-06T04:46:40.987Z,23.25
2018-12-06T04:49:08.453Z,24.85
2018-12-06T04:51:35.911Z,21.60
2018-12-06T04:54:03.379Z,27.32
2018-12-06T04:56:30.861Z,26.12
2018-12-06T04:58:58.311Z,26.42
2018-12-06T05:01:25.754Z,23.40
2018-12-06T05:03:53.584Z,21.60
2018-12-06T05:06:21.037Z,22.58
2018-12-06T05:08:48.500Z,22.25
2018-12-06T05:11:15.984Z,25.32
2018-12-06T05:13:43.448Z,26.02
2018-12-06T05:16:10.900Z,24.72
2018-12-06T05:18:38.374Z,22.32
2018-12-06T05:21:05.827Z,21.62
2018-12-06T05:23:33.287Z,23.70
2018-12-06T05:26:01.162Z,20.82
2018-12-06T05:28:28.624Z,26.93
2018-12-06T05:30:56.096Z,23.67
2018-12-06T05:33:23.540Z,27.02
2018-12-06T05:35:50.987Z,29.50
2018-12-06T05:38:18.435Z,24.55
2018-12-06T05:40:45.895Z,24.32
2018-12-06T05:43:13.346Z,20.88
2018-12-06T05:45:42.760Z,25.75
2018-12-06T05:48:11.059Z,20.97
2018-12-06T05:50:38.502Z,23.85
2018-12-06T05:53:05.985Z,20.43
2018-12-06T05:55:33.457Z,19.02
2018-12-06T05:58:00.903Z,20.92
2018-12-06T06:00:28.369Z,20.77
2018-12-06T06:02:55.811Z,20.50
2018-12-06T06:05:23.302Z,25.68
2018-12-06T06:07:50.761Z,21.23
2018-12-06T06:10:18.223Z,23.90
2018-12-06T06:12:45.672Z,24.67
2018-12-06T06:15:13.152Z,21.85
2018-12-06T06:17:40.655Z,25.27
2018-12-06T06:20:08.305Z,17.07
2018-12-06T06:22:35.850Z,20.12
2018-12-06T06:25:03.562Z,21.15
2018-12-06T06:27:31.087Z,28.40
2018-12-06T06:29:58.552Z,27.02
2018-12-06T06:32:25.994Z,22.25
2018-12-06T06:34:54.119Z,23.30
2018-12-06T06:37:21.575Z,22.07
2018-12-06T06:39:49.084Z,29.32
2018-12-06T06:42:17.375Z,28.42
2018-12-06T06:44:44.854Z,27.73
2018-12-06T06:47:12.312Z,25.88
2018-12-06T06:49:39.766Z,18.12
2018-12-06T06:52:07.228Z,21.65
2018-12-06T06:54:34.678Z,22.82
2018-12-06T06:57:02.144Z,27.62
2018-12-06T06:59:29.603Z,19.48
2018-12-06T07:01:57.132Z,17.60
2018-12-06T07:04:24.658Z,22.27
2018-12-06T07:06:52.099Z,30.92
2018-12-06T07:09:19.564Z,29.10
2018-12-06T07:11:47.009Z,23.02
2018-12-06T07:14:14.956Z,24.18
2018-12-06T07:16:42.542Z,24.80
2018-12-06T07:19:10.034Z,22.17
2018-12-06T07:21:37.491Z,18.60
2018-12-06T07:24:05.044Z,18.65
2018-12-06T07:26:34.299Z,17.70
2018-12-06T07:29:01.821Z,27.00
2018-12-06T07:31:29.630Z,19.48
2018-12-06T07:33:57.100Z,20.60
2018-12-06T07:36:25.467Z,17.23
2018-12-06T07:38:53.067Z,16.90
2018-12-06T07:41:20.580Z,22.82
2018-12-06T07:43:48.122Z,20.92
2018-12-06T07:46:15.704Z,17.95
2018-12-06T07:48:43.155Z,14.85
2018-12-06T07:51:10.611Z,17.37
2018-12-06T07:53:38.067Z,18.92
2018-12-06T07:56:05.683Z,18.90
2018-12-06T07:58:33.398Z,20.90
2018-12-06T08:01:01.400Z,19.37
2018-12-06T08:03:28.861Z,17.50
2018-12-06T08:05:56.355Z,24.35
2018-12-06T08:08:24.779Z,15.78
2018-12-06T08:10:52.437Z,17.98
2018-12-06T08:13:19.928Z,17.23
2018-12-06T08:15:47.387Z,24.03
2018-12-06T08:18:14.872Z,20.52
2018-12-06T08:20:42.334Z,15.10
2018-12-06T08:23:10.207Z,18.55
2018-12-06T08:25:39.137Z,18.55
2018-12-06T08:28:06.893Z,22.02
2018-12-06T08:30:34.340Z,23.95
2018-12-06T08:33:01.808Z,32.90
2018-12-06T08:35:30.774Z,20.05
2018-12-06T08:37:59.727Z,31.80
2018-12-06T08:40:27.207Z,27.45
2018-12-06T08:42:54.668Z,27.77
2018-12-06T08:45:22.119Z,31.77
2018-12-06T08:47:49.583Z,25.93
2018-12-06T08:50:17.048Z,26.30
2018-12-06T08:52:44.518Z,25.60
2018-12-06T08:55:11.965Z,34.53
2018-12-06T08:57:39.439Z,33.20
2018-12-06T09:00:08.984Z,22.90
2018-12-06T09:02:36.532Z,32.57
2018-12-06T09:05:05.602Z,38.00
2018-12-06T09:07:33.227Z,26.53
2018-12-06T09:10:01.088Z,33.23
2018-12-06T09:12:28.535Z,28.10
2018-12-06T09:14:56.296Z,41.83
2018-12-06T09:17:23.784Z,32.87
2018-12-06T09:19:51.311Z,34.13
2018-12-06T09:22:18.818Z,33.07
2018-12-06T09:24:46.266Z,36.53
2018-12-06T09:27:13.760Z,27.17
2018-12-06T09:29:41.207Z,20.67
2018-12-06T09:32:08.671Z,37.27
2018-12-06T09:34:38.234Z,34.13
2018-12-06T09:37:05.928Z,29.07
2018-12-06T09:39:33.432Z,36.13
2018-12-06T09:42:01.040Z,23.00
2018-12-06T09:44:28.507Z,26.33
2018-12-06T09:46:55.955Z,27.23
2018-12-06T09:49:23.420Z,36.43
2018-12-06T09:51:50.868Z,33.93
2018-12-06T09:54:18.399Z,36.67
2018-12-06T09:56:45.864Z,26.20
2018-12-06T09:59:13.344Z,22.10
2018-12-06T10:01:40.854Z,21.13
2018-12-06T10:04:08.380Z,28.93
2018-12-06T10:06:35.820Z,30.27
2018-12-06T10:09:05.106Z,24.27
2018-12-06T10:11:32.566Z,25.37
2018-12-06T10:14:00.033Z,17.70
2018-12-06T10:16:28.537Z,36.23
2018-12-06T10:18:55.995Z,19.93
2018-12-06T10:21:23.443Z,25.80
2018-12-06T10:23:50.890Z,28.20
2018-12-06T10:26:18.336Z,22.13
2018-12-06T10:28:45.799Z,30.63
2018-12-06T10:31:13.261Z,22.50
2018-12-06T10:33:40.686Z,21.90
2018-12-06T10:36:08.138Z,16.73
2018-12-06T10:38:35.583Z,28.53
2018-12-06T10:41:03.040Z,25.27
2018-12-06T10:43:30.486Z,18.37
2018-12-06T10:45:57.959Z,14.83
2018-12-06T10:48:25.411Z,21.80
2018-12-06T10:50:56.786Z,25.07
2018-12-06T10:53:24.243Z,23.90
2018-12-06T10:55:51.703Z,18.50
2018-12-06T10:58:19.150Z,22.63
2018-12-06T11:03:50.858Z,23.53
2018-12-06T11:06:18.375Z,20.80
2018-12-06T11:08:45.821Z,15.67
2018-12-06T11:11:13.279Z,23.07
2018-12-06T11:13:40.723Z,25.87
2018-12-06T11:16:08.176Z,12.70
2018-12-06T11:18:35.618Z,22.00
2018-12-06T11:21:03.083Z,16.03
2018-12-06T11:23:30.526Z,15.40
2018-12-06T11:25:57.987Z,21.93
2018-12-06T11:28:25.427Z,12.53
2018-12-06T11:30:52.880Z,12.47
2018-12-06T11:33:20.333Z,15.60
2018-12-06T11:35:47.828Z,14.70
2018-12-06T11:38:15.623Z,12.90
2018-12-06T11:40:43.807Z,23.97
2018-12-06T11:43:11.266Z,14.13
2018-12-06T11:45:38.708Z,24.63
2018-12-06T11:48:10.256Z,14.33
2018-12-06T11:50:49.798Z,13.23
2018-12-06T11:53:17.235Z,12.67
2018-12-06T11:55:44.741Z,32.03
2018-12-06T11:58:12.456Z,12.23
2018-12-06T12:00:39.894Z,26.03
2018-12-06T12:03:07.346Z,12.63
2018-12-06T12:05:34.857Z,15.63
2018-12-06T12:08:02.564Z,11.60
2018-12-06T12:10:29.994Z,12.47
2018-12-06T12:12:57.453Z,14.27
2018-12-06T12:15:24.905Z,27.53
2018-12-06T12:17:52.367Z,23.23
2018-12-06T12:20:19.803Z,11.97
2018-12-06T12:22:47.242Z,18.10
2018-12-06T12:25:14.703Z,18.53
2018-12-06T12:27:42.312Z,16.80
2018-12-06T12:30:09.907Z,29.20
2018-12-06T12:32:37.354Z,21.37
2018-12-06T12:35:05.036Z,37.77
2018-12-06T12:37:32.475Z,61.27
2018-12-06T12:39:59.931Z,23.50
2018-12-06T12:42:27.384Z,12.23
2018-12-06T12:44:54.912Z,22.60
2018-12-06T12:47:22.364Z,13.10
2018-12-06T12:49:49.814Z,19.73
2018-12-06T12:52:17.258Z,18.50
2018-12-06T12:54:44.737Z,13.07
2018-12-06T12:57:12.192Z,15.90
2018-12-06T12:59:39.649Z,14.47
2018-12-06T13:02:07.151Z,18.67
2018-12-06T13:04:34.596Z,23.53
2018-12-06T13:07:08.608Z,14.20
2018-12-06T13:09:36.073Z,21.43
2018-12-06T13:12:03.593Z,20.47
2018-12-06T13:14:31.105Z,10.00
2018-12-06T13:16:58.991Z,16.10
2018-12-06T13:19:26.443Z,16.27
2018-12-06T13:21:53.916Z,14.40
2018-12-06T13:24:21.378Z,15.80
2018-12-06T13:26:48.820Z,16.93
2018-12-06T13:29:16.269Z,23.87
2018-12-06T13:31:43.790Z,22.13
2018-12-06T13:34:11.387Z,17.53
2018-12-06T13:36:38.834Z,18.53
2018-12-06T13:39:06.619Z,26.63
2018-12-06T13:41:34.080Z,12.60
2018-12-06T13:44:01.604Z,14.67
2018-12-06T13:46:29.054Z,17.87
2018-12-06T13:48:56.504Z,10.23
2018-12-06T13:51:23.963Z,16.23
2018-12-06T13:53:51.424Z,21.57
2018-12-06T13:56:18.953Z,14.53
2018-12-06T13:58:46.396Z,12.30
2018-12-06T14:01:14.118Z,18.07
2018-12-06T14:03:41.928Z,15.27
2018-12-06T14:06:09.382Z,17.17
2018-12-06T14:08:38.277Z,11.77
2018-12-06T14:11:05.972Z,12.90
2018-12-06T14:13:33.824Z,9.40
2018-12-06T14:16:01.258Z,14.10
2018-12-06T14:18:28.739Z,9.70
2018-12-06T14:20:56.268Z,12.00
2018-12-06T14:23:23.719Z,8.30
2018-12-06T14:25:51.183Z,16.10
2018-12-06T14:28:18.639Z,17.63
2018-12-06T14:30:46.094Z,7.83
2018-12-06T14:33:13.558Z,12.80
2018-12-06T14:35:41.016Z,9.33
2018-12-06T14:38:08.881Z,10.50
2018-12-06T14:40:36.333Z,7.17
2018-12-06T14:43:05.094Z,11.17
2018-12-06T14:45:32.813Z,10.57
2018-12-06T14:48:00.268Z,9.40
2018-12-06T14:50:27.702Z,7.10
2018-12-06T14:52:55.156Z,8.03
2018-12-06T14:55:22.590Z,7.33
2018-12-06T14:57:50.047Z,7.67
2018-12-06T15:00:17.614Z,10.90
2018-12-06T15:02:45.080Z,20.87
2018-12-06T15:05:12.535Z,16.50
2018-12-06T15:07:40.004Z,20.73
2018-12-06T15:10:07.770Z,21.93
2018-12-06T15:12:35.222Z,20.60
2018-12-06T15:15:02.771Z,15.83
2018-12-06T15:17:30.206Z,7.97
2018-12-06T15:19:57.655Z,8.20
2018-12-06T15:22:25.834Z,9.57
2018-12-06T15:24:54.041Z,20.83
2018-12-06T15:27:21.635Z,5.80
2018-12-06T15:29:50.097Z,8.23
2018-12-06T15:32:17.544Z,10.40
2018-12-06T15:34:45.023Z,14.30
2018-12-06T15:37:13.865Z,12.07
2018-12-06T15:39:41.562Z,5.50
2018-12-06T15:42:09.035Z,7.13
2018-12-06T15:44:36.506Z,11.23
2018-12-06T15:47:03.944Z,10.10
2018-12-06T15:49:31.402Z,9.80
2018-12-06T15:51:58.991Z,6.00
2018-12-06T15:54:28.388Z,11.23
2018-12-06T15:56:55.843Z,13.97
2018-12-06T15:59:23.303Z,7.20
2018-12-06T16:01:50.780Z,14.37
2018-12-06T16:04:18.233Z,7.10
2018-12-06T16:06:45.674Z,6.60
2018-12-06T16:09:13.127Z,11.20
2018-12-06T16:11:43.337Z,8.80
2018-12-06T16:14:10.856Z,14.97
2018-12-06T16:16:38.291Z,6.20
2018-12-06T16:19:05.865Z,11.57
2018-12-06T16:21:33.314Z,9.97
2018-12-06T16:24:00.772Z,12.17
2018-12-06T16:26:28.235Z,7.73
2018-12-06T16:28:56.354Z,6.10
2018-12-06T16:31:23.806Z,12.43
2018-12-06T16:33:51.244Z,8.30
2018-12-06T16:36:18.860Z,8.00
2018-12-06T16:38:46.351Z,8.87
2018-12-06T16:41:15.148Z,11.33
2018-12-06T16:43:42.905Z,6.53
2018-12-06T16:46:12.285Z,7.10
2018-12-06T16:48:42.508Z,3.27
2018-12-06T16:51:09.971Z,3.50
2018-12-06T16:53:37.420Z,3.70
2018-12-06T16:56:04.944Z,4.97
2018-12-06T16:58:32.399Z,7.90
2018-12-06T17:01:01.194Z,9.27
2018-12-06T17:03:28.655Z,7.03
2018-12-06T17:05:56.095Z,4.73
2018-12-06T17:08:23.642Z,4.83
2018-12-06T17:10:51.205Z,5.30
2018-12-06T17:13:19.715Z,5.10
2018-12-06T17:15:47.283Z,7.00
2018-12-06T17:18:15.829Z,8.50
2018-12-06T17:20:43.259Z,4.30
2018-12-06T17:23:10.751Z,14.53
2018-12-06T17:25:38.194Z,10.57
2018-12-06T17:28:05.690Z,8.17
2018-12-06T17:30:33.196Z,6.13
2018-12-06T17:33:00.659Z,9.60
2018-12-06T17:35:28.169Z,4.60
2018-12-06T17:37:55.626Z,6.37
2018-12-06T17:40:23.078Z,7.43
2018-12-06T17:42:50.528Z,2.80
2018-12-06T17:45:17.992Z,3.03
2018-12-06T17:47:45.457Z,3.50
2018-12-06T17:50:12.979Z,6.10
2018-12-06T17:52:40.985Z,7.30
2018-12-06T17:55:08.811Z,5.47
2018-12-06T17:57:36.320Z,4.73
2018-12-06T18:00:06.833Z,4.47
2018-12-06T18:02:34.413Z,3.00
2018-12-06T18:05:01.856Z,5.90
2018-12-06T18:07:29.349Z,4.43
2018-12-06T18:09:56.795Z,3.80
2018-12-06T18:12:24.240Z,4.97
2018-12-06T18:14:51.758Z,3.37
2018-12-06T18:17:19.321Z,6.83
2018-12-06T18:19:48.110Z,8.03
2018-12-06T18:22:15.770Z,5.10
2018-12-06T18:24:43.413Z,7.27
2018-12-06T18:27:10.869Z,13.37
2018-12-06T18:29:38.308Z,6.97
2018-12-06T18:32:05.760Z,15.13
2018-12-06T18:34:33.247Z,11.33
2018-12-06T18:37:01.515Z,9.53
2018-12-06T18:39:28.962Z,11.83
2018-12-06T18:41:56.419Z,6.90
2018-12-06T18:44:23.880Z,8.13
2018-12-06T18:46:53.277Z,4.27
2018-12-06T18:49:20.929Z,6.40
2018-12-06T18:51:48.900Z,6.20
2018-12-06T18:54:17.373Z,3.57
2018-12-06T18:56:44.829Z,9.93
2018-12-06T18:59:12.263Z,7.30
2018-12-06T19:01:39.991Z,7.60
2018-12-06T19:04:07.796Z,4.83
2018-12-06T19:06:39.352Z,7.23
2018-12-06T19:09:06.822Z,5.33
2018-12-06T19:11:34.430Z,9.30
2018-12-06T19:14:04.500Z,7.33
2018-12-06T19:16:32.304Z,15.13
2018-12-06T19:19:01.079Z,6.03
2018-12-06T19:21:28.546Z,5.93
2018-12-06T19:23:55.999Z,6.10
2018-12-06T19:26:23.455Z,8.43
2018-12-06T19:28:51.063Z,8.00
2018-12-06T19:31:18.503Z,7.70
2018-12-06T19:33:45.954Z,8.07
2018-12-06T19:36:13.408Z,9.43
2018-12-06T19:38:40.867Z,12.03
2018-12-06T19:41:08.306Z,11.93
2018-12-06T19:43:35.760Z,6.30
2018-12-06T19:46:03.600Z,11.80
2018-12-06T19:48:31.041Z,7.60
2018-12-06T19:50:58.486Z,14.33
2018-12-06T19:53:25.947Z,10.93
2018-12-06T19:55:53.386Z,6.17
2018-12-06T19:58:20.839Z,7.63
2018-12-06T20:00:48.294Z,8.33
2018-12-06T20:03:15.754Z,6.53
2018-12-06T20:05:43.251Z,11.37
2018-12-06T20:08:10.809Z,5.53
2018-12-06T20:10:38.335Z,4.97
2018-12-06T20:13:05.858Z,7.20
2018-12-06T20:15:33.329Z,2.57
2018-12-06T20:18:00.844Z,6.47
2018-12-06T20:20:28.300Z,12.30
2018-12-06T20:22:55.772Z,4.20
2018-12-06T20:25:23.272Z,5.63
2018-12-06T20:27:50.745Z,3.37
2018-12-06T20:30:18.264Z,4.10
2018-12-06T20:32:45.720Z,8.20
2018-12-06T20:35:13.176Z,6.17
2018-12-06T20:37:40.640Z,4.60
2018-12-06T20:40:08.139Z,4.87
2018-12-06T20:42:35.610Z,4.83
2018-12-06T20:45:03.122Z,4.77
2018-12-06T20:47:30.580Z,3.50
2018-12-06T20:49:58.077Z,6.77
2018-12-06T20:52:25.556Z,4.23
2018-12-06T20:54:53.074Z,10.10
2018-12-06T20:57:20.569Z,5.03
2018-12-06T20:59:48.236Z,3.83
2018-12-06T21:02:15.702Z,4.97
2018-12-06T21:04:43.146Z,5.40
2018-12-06T21:07:10.607Z,11.27
2018-12-06T21:09:38.062Z,5.30
2018-12-06T21:12:06.357Z,8.60
2018-12-06T21:14:33.802Z,4.27
2018-12-06T21:17:01.351Z,3.40
2018-12-06T21:19:28.945Z,3.27
2018-12-06T21:21:56.395Z,2.90
2018-12-06T21:24:23.857Z,3.63
2018-12-06T21:26:54.669Z,3.53
2018-12-06T21:29:22.270Z,4.37
2018-12-06T21:31:49.990Z,12.60
2018-12-06T21:34:17.723Z,3.03
2018-12-06T21:36:45.164Z,2.93
2018-12-06T21:39:12.683Z,16.80
2018-12-06T21:41:40.528Z,3.90
2018-12-06T21:44:08.005Z,2.50
2018-12-06T21:46:35.456Z,5.87
2018-12-06T21:49:03.188Z,3.73
2018-12-06T21:51:30.705Z,5.43
2018-12-06T21:53:58.146Z,5.00
2018-12-06T21:56:27.750Z,6.03
2018-12-06T21:58:56.050Z,3.63
2018-12-06T22:01:23.550Z,4.10
2018-12-06T22:03:50.995Z,4.70
2018-12-06T22:06:18.454Z,10.03
2018-12-06T22:08:45.899Z,6.80
2018-12-06T22:11:13.363Z,10.13
2018-12-06T22:13:40.818Z,8.90
2018-12-06T22:16:08.279Z,10.53
2018-12-06T22:18:35.732Z,6.40
2018-12-06T22:21:03.177Z,9.77
2018-12-06T22:23:30.624Z,7.90
2018-12-06T22:25:58.083Z,8.10
2018-12-06T22:28:25.519Z,10.10
2018-12-06T22:30:52.988Z,4.50
2018-12-06T22:33:20.428Z,7.87
2018-12-06T22:35:47.884Z,2.57
2018-12-06T22:38:15.338Z,4.93
2018-12-06T22:40:42.778Z,6.30
2018-12-06T22:43:10.263Z,7.23
2018-12-06T22:45:55.689Z,5.23
2018-12-06T22:48:23.570Z,5.87
2018-12-06T22:50:51.016Z,3.70
2018-12-06T22:53:18.472Z,5.27
2018-12-06T22:55:45.929Z,7.37
2018-12-06T22:58:13.391Z,6.23
2018-12-06T23:00:43.443Z,7.70
2018-12-06T23:03:10.896Z,5.07
2018-12-06T23:05:38.330Z,3.50
2018-12-06T23:08:05.778Z,3.73
2018-12-06T23:10:33.228Z,5.37
2018-12-06T23:13:00.686Z,3.70
2018-12-06T23:15:28.128Z,8.07
2018-12-06T23:17:55.584Z,3.70
2018-12-06T23:20:24.079Z,5.80
2018-12-06T23:22:51.578Z,2.57
2018-12-06T23:25:19.027Z,2.40
2018-12-06T23:27:46.467Z,7.03
2018-12-06T23:30:13.923Z,4.47
2018-12-06T23:32:41.578Z,3.57
2018-12-06T23:35:09.031Z,3.23
2018-12-06T23:37:36.476Z,3.97
2018-12-06T23:40:05.373Z,2.60
2018-12-06T23:42:32.812Z,4.13
2018-12-06T23:45:00.274Z,4.00
2018-12-06T23:47:27.731Z,3.73
2018-12-06T23:49:55.328Z,1.90
2018-12-06T23:52:22.824Z,2.60
2018-12-06T23:54:50.676Z,7.13
2018-12-06T23:57:18.116Z,2.50
2018-12-06T23:59:45.625Z,7.80
